Bronx, New York
Current Conditions -  °F | °C
As of 3:51 AM on Wednesday 22 Oct 2014 (Local Time) from KLGA Reporting Station
Thunderstorm Thunderstorm  
Wind Chill: 57°   Ceiling: 1200
Heat Index: 57°   Visibility: 10mi
Dew Point: 55°   Wind: 16mph
Humidity: 93%   Direction: 70°ENE
Pressure: 29.88"   Gusts: NA
Location:  40.85°N, 73.87°W
Report Text: KLGA 220751Z 07014KT 10SM -TSRA BKN012CB OVC018 14/13 A2988 RMK AO2 TSB47 SLP118 FRQ LTGICCC OHD-E-S TS OHD-E-S MOV NW P0002 T01390128
Loading
Personal Weather Stations






























Interactive Weather Map
Tropical Storm Tracking
New forecast layout! Learn more

10-Day Weather Forecast

Advertisements
Track Severe Weather on mobile